Aeroporto :
LOGIN :

Iscrizione | Disclaimer

   EN    FR    IT 

 










Sommario :    VFR   VFR Marginale   IFR   IFR Intensivo   IFR Molto Intensivo
Visibilità : 
Base nubi : 
>= 8 km
>= 3000ft
5 / 8 km
1000 / 3000 ft
1500m / 5 km
500 / 1000 ft
800 / 1500m
200 / 500 ft
< 800m
< 200 ft
Simboli :   Temporali  Nebbia  Neve Forte  Precipitazioni Forti  Vento > 20 kt
SIGMETs :   Varie  Temporali  Ghiacco  Turbolenza  Onda orograficha  Ceneri Vulcaniche







- Altitudine del aeroporto : 184 ft
- Codice IATA : BRU


EBBR - Bruxelles

ULTIMO METAR :
  • 160820Z 21008KT 4800 BR BKN005 BKN040 03/02 Q1009 NOSIG

METARs OBSOLETI :
  • 160750Z 20005KT 4000 BR BKN004 02/02 Q1009 TEMPO 2000 BR
  • 160720Z 20006KT 4000 BR BKN004 02/02 Q1009 TEMPO 2000 BR
  • 160650Z 21007KT 4500 BR BKN004 02/02 Q1009 TEMPO 2000 BR
  • 160620Z 21005KT 4500 BR BKN004 02/01 Q1009 TEMPO 2000 BR
  • 160550Z 20007KT 5000 BR BKN003 01/01 Q1009 TEMPO 2000 BR

TAF COR TAF EBBR
Valido dal 16 a 06 ore il 17 a 12 ore UTC


160515Z 1606/1712 22008KT 8000 BKN007
PROB30
TEMPO 1606/1609 2000 BR BKN003
PROB30
TEMPO 1608/1610 4000 SHRA
BECMG 1609/1611 SCT008 BKN012
TEMPO 1611/1616 SCT010 BKN030
BECMG 1616/1618 BKN007
PROB30
TEMPO 1619/1624 BKN004
PROB30
TEMPO 1703/1707 4500 -RA SHRA
BECMG 1707/1709 SCT015 SCT030
Nessun NOTAM noto per questo aeroporto.



MetMap, La meteo Aeronautica in un colpo d'occhio ! - Copyright ORBIFLY Dicembre 2007 - Disclaimer

ORBIFLY MET'MAP TEAM :

Programmazione e sviluppo : Alexandra Zaïnal
Concezione e sviluppo : Baudouin d'Aumeries
Co-Programmazione e sviluppo : Marc-Olivier Méhu
Supporto tecnico e logistico : Manuel Goepfert
Aiuto per la traduzione : Arnaldo La Scala

Contatto : metmap@orbifly.com




FONTI E CREDITI :

   NOAA